createdAt,value
2019-04-30T00:00:59.487Z,70.30
2019-04-30T00:03:46.266Z,71.00
2019-04-30T00:06:15.582Z,71.00
2019-04-30T00:08:41.088Z,70.40
2019-04-30T00:11:10.751Z,70.60
2019-04-30T00:13:36.307Z,70.90
2019-04-30T00:16:05.335Z,71.70
2019-04-30T00:18:35.890Z,71.80
2019-04-30T00:20:59.904Z,71.70
2019-04-30T00:23:30.670Z,72.10
2019-04-30T00:25:58.197Z,72.40
2019-04-30T00:28:22.710Z,72.80
2019-04-30T00:30:50.304Z,73.30
2019-04-30T00:33:22.268Z,73.80
2019-04-30T00:35:49.572Z,74.20
2019-04-30T00:38:15.124Z,75.20
2019-04-30T00:40:41.773Z,75.20
2019-04-30T00:43:09.362Z,75.50
2019-04-30T00:45:39.946Z,75.80
2019-04-30T00:48:05.978Z,76.00
2019-04-30T00:50:35.852Z,76.20
2019-04-30T00:52:59.780Z,76.90
2019-04-30T00:55:27.417Z,76.30
2019-04-30T00:57:55.815Z,77.00
2019-04-30T01:00:27.205Z,76.30
2019-04-30T01:02:50.228Z,76.20
2019-04-30T01:05:21.476Z,76.40
2019-04-30T01:07:51.794Z,76.50
2019-04-30T01:10:19.679Z,76.50
2019-04-30T01:12:47.980Z,76.60
2019-04-30T01:15:14.459Z,76.70
2019-04-30T01:17:40.701Z,76.90
2019-04-30T01:20:09.392Z,77.40
2019-04-30T01:22:36.443Z,77.30
2019-04-30T01:25:18.702Z,76.70
2019-04-30T01:27:46.622Z,76.00
2019-04-30T01:30:13.233Z,76.10
2019-04-30T01:32:41.397Z,76.10
2019-04-30T01:35:08.996Z,76.00
2019-04-30T01:37:38.575Z,76.10
2019-04-30T01:40:10.562Z,76.40
2019-04-30T01:42:32.559Z,76.30
2019-04-30T01:45:00.154Z,76.40
2019-04-30T01:47:30.796Z,77.50
2019-04-30T01:50:00.996Z,77.00
2019-04-30T01:52:24.505Z,76.90
2019-04-30T01:54:52.131Z,77.10
2019-04-30T01:57:22.167Z,77.20
2019-04-30T02:00:05.684Z,77.70
2019-04-30T02:02:33.274Z,77.70
2019-04-30T02:05:00.861Z,78.00
2019-04-30T02:07:28.901Z,78.20
2019-04-30T02:09:56.088Z,78.30
2019-04-30T02:12:24.203Z,78.30
2019-04-30T02:14:51.959Z,78.40
2019-04-30T02:17:20.146Z,78.30
2019-04-30T02:19:56.464Z,78.30
2019-04-30T02:22:15.367Z,78.30
2019-04-30T02:24:42.959Z,78.40
2019-04-30T02:27:10.557Z,78.60
2019-04-30T02:29:39.722Z,78.70
2019-04-30T02:32:06.114Z,78.90
2019-04-30T02:34:51.757Z,79.10
2019-04-30T02:37:21.042Z,79.20
2019-04-30T02:39:46.934Z,79.60
2019-04-30T02:42:14.553Z,79.80
2019-04-30T02:44:42.142Z,80.10
2019-04-30T02:47:10.173Z,80.30
2019-04-30T02:49:39.798Z,81.00
2019-04-30T02:52:05.714Z,80.90
2019-04-30T02:54:33.312Z,80.40
2019-04-30T02:57:00.925Z,80.40
2019-04-30T02:59:30.066Z,80.50
2019-04-30T03:01:56.106Z,80.70
2019-04-30T03:04:23.731Z,80.90
2019-04-30T03:06:51.328Z,81.00
2019-04-30T03:09:20.117Z,81.20
2019-04-30T03:11:49.793Z,81.80
2019-04-30T03:14:14.908Z,81.70
2019-04-30T03:16:42.494Z,81.00
2019-04-30T03:19:10.176Z,81.00
2019-04-30T03:21:43.463Z,81.20
2019-04-30T03:24:11.279Z,81.50
2019-04-30T03:26:40.062Z,81.80
2019-04-30T03:29:06.267Z,82.00
2019-04-30T03:31:34.627Z,82.60
2019-04-30T03:34:02.791Z,82.50
2019-04-30T03:36:32.570Z,82.70
2019-04-30T03:38:59.982Z,82.80
2019-04-30T03:41:25.967Z,83.60
2019-04-30T03:43:53.548Z,82.90
2019-04-30T03:46:21.137Z,82.80
2019-04-30T03:48:50.415Z,82.90
2019-04-30T03:51:16.355Z,83.70
2019-04-30T03:53:44.712Z,83.20
2019-04-30T03:56:12.344Z,83.20
2019-04-30T03:58:39.940Z,83.30
2019-04-30T04:01:10.379Z,83.90
2019-04-30T04:03:42.034Z,83.40
2019-04-30T04:06:21.285Z,83.50
2019-04-30T04:08:44.842Z,83.80
2019-04-30T04:11:13.196Z,85.10
2019-04-30T04:13:40.787Z,84.80
2019-04-30T04:16:09.640Z,85.10
2019-04-30T04:18:36.433Z,85.40
2019-04-30T04:21:11.370Z,85.80
2019-04-30T04:23:32.839Z,86.10
2019-04-30T04:25:59.638Z,86.20
2019-04-30T04:28:26.846Z,86.50
2019-04-30T04:30:54.467Z,86.60
2019-04-30T04:33:22.050Z,86.70
2019-04-30T04:35:50.079Z,86.60
2019-04-30T04:38:20.125Z,86.50
2019-04-30T04:40:46.684Z,86.60
2019-04-30T04:43:14.259Z,86.60
2019-04-30T04:45:43.783Z,86.60
2019-04-30T04:48:09.654Z,86.60
2019-04-30T04:50:39.783Z,86.50
2019-04-30T04:53:07.780Z,86.70
2019-04-30T04:55:32.394Z,86.10
2019-04-30T04:58:00.159Z,85.80
2019-04-30T05:00:29.381Z,85.60
2019-04-30T05:03:04.933Z,85.90
2019-04-30T05:05:32.530Z,85.80
2019-04-30T05:08:01.339Z,85.90
2019-04-30T05:10:29.245Z,85.70
2019-04-30T05:12:56.525Z,85.70
2019-04-30T05:15:24.166Z,85.50
2019-04-30T05:17:52.913Z,85.60
2019-04-30T05:20:20.504Z,84.70
2019-04-30T05:22:49.271Z,84.00
2019-04-30T05:25:18.695Z,84.00
2019-04-30T05:27:45.226Z,84.00
2019-04-30T05:30:14.559Z,84.00
2019-04-30T05:32:42.157Z,84.10
2019-04-30T05:35:09.750Z,84.10
2019-04-30T05:37:49.474Z,83.30
2019-04-30T05:40:11.280Z,83.20
2019-04-30T05:42:38.939Z,82.50
2019-04-30T05:45:06.512Z,82.10
2019-04-30T05:47:34.095Z,82.20
2019-04-30T05:50:01.688Z,81.10
2019-04-30T05:52:30.459Z,79.90
2019-04-30T05:55:00.171Z,79.80
2019-04-30T05:57:26.406Z,79.80
2019-04-30T05:59:54.798Z,79.70
2019-04-30T06:02:23.152Z,79.00
2019-04-30T06:04:50.754Z,79.00
2019-04-30T06:07:18.880Z,78.90
2019-04-30T06:09:48.478Z,78.90
2019-04-30T06:12:20.100Z,78.90
2019-04-30T06:14:49.948Z,78.90
2019-04-30T06:17:20.924Z,78.70
2019-04-30T06:19:51.523Z,78.60
2019-04-30T06:22:18.980Z,78.50
2019-04-30T06:24:45.349Z,78.80
2019-04-30T06:27:13.767Z,78.70
2019-04-30T06:29:41.431Z,78.70
2019-04-30T06:32:09.124Z,78.80
2019-04-30T06:34:36.729Z,78.90
2019-04-30T06:37:04.444Z,78.60
2019-04-30T06:39:32.061Z,78.10
2019-04-30T06:42:06.464Z,78.20
2019-04-30T06:44:36.920Z,78.40
2019-04-30T06:46:54.907Z,77.70
2019-04-30T06:49:22.492Z,74.20
2019-04-30T06:51:51.571Z,73.10
2019-04-30T06:54:19.265Z,73.10
2019-04-30T06:56:48.509Z,73.10
2019-04-30T06:59:15.455Z,73.10
2019-04-30T07:01:43.055Z,73.30
2019-04-30T07:04:10.648Z,72.10
2019-04-30T07:06:44.025Z,71.90
2019-04-30T07:09:26.656Z,72.40
2019-04-30T07:11:55.738Z,72.30
2019-04-30T07:14:23.277Z,71.80
2019-04-30T07:16:50.862Z,71.90
2019-04-30T07:19:31.750Z,70.20
2019-04-30T07:21:46.881Z,70.20
2019-04-30T07:24:14.470Z,69.60
2019-04-30T07:26:42.921Z,68.70
2019-04-30T07:29:10.520Z,68.60
2019-04-30T07:31:39.280Z,68.10
2019-04-30T07:34:05.819Z,67.50
2019-04-30T07:36:45.225Z,66.60
2019-04-30T07:39:00.977Z,66.90
2019-04-30T07:41:30.893Z,67.00
2019-04-30T07:43:56.307Z,66.30
2019-04-30T07:46:23.923Z,66.80
2019-04-30T07:48:53.344Z,66.80
2019-04-30T07:51:22.396Z,67.60
2019-04-30T07:53:49.920Z,67.60
2019-04-30T07:56:25.515Z,66.60
2019-04-30T07:58:45.225Z,66.30
2019-04-30T08:01:13.608Z,66.20
2019-04-30T08:03:50.124Z,66.60
2019-04-30T08:06:19.015Z,65.80
2019-04-30T08:08:45.611Z,65.70
2019-04-30T08:11:23.044Z,66.10
2019-04-30T08:13:41.554Z,66.40
2019-04-30T08:16:09.830Z,67.00
2019-04-30T08:18:36.970Z,67.00
2019-04-30T08:21:04.632Z,66.80
2019-04-30T08:23:36.775Z,66.80
2019-04-30T08:26:00.279Z,66.70
2019-04-30T08:28:30.395Z,64.40
2019-04-30T08:30:56.464Z,64.30
2019-04-30T08:33:24.198Z,64.00
2019-04-30T08:35:52.579Z,63.10
2019-04-30T08:38:20.982Z,63.30
2019-04-30T08:40:56.134Z,63.70
2019-04-30T08:43:16.486Z,63.00
2019-04-30T08:45:44.942Z,62.60
2019-04-30T08:48:12.693Z,62.60
2019-04-30T08:50:40.523Z,62.30
2019-04-30T08:53:07.866Z,62.00
2019-04-30T08:55:35.750Z,61.10
2019-04-30T08:58:09.963Z,61.50
2019-04-30T09:00:30.931Z,61.40
2019-04-30T09:02:59.338Z,61.50
2019-04-30T09:05:35.380Z,61.70
2019-04-30T09:08:03.345Z,61.50
2019-04-30T09:10:30.942Z,61.20
2019-04-30T09:13:00.434Z,61.40
2019-04-30T09:15:29.126Z,61.90
2019-04-30T09:18:03.310Z,61.90
2019-04-30T09:20:24.026Z,61.70
2019-04-30T09:22:52.432Z,62.90
2019-04-30T09:25:20.033Z,62.20
2019-04-30T09:27:48.792Z,61.40
2019-04-30T09:30:15.261Z,61.20
2019-04-30T09:32:42.851Z,61.40
2019-04-30T09:35:10.434Z,61.90
2019-04-30T09:37:39.023Z,61.90
2019-04-30T09:40:15.312Z,61.90
2019-04-30T09:42:33.258Z,61.40
2019-04-30T09:45:00.919Z,61.30
2019-04-30T09:47:29.563Z,61.10
2019-04-30T09:49:56.080Z,61.00
2019-04-30T09:52:23.714Z,60.90
2019-04-30T09:54:51.647Z,60.80
2019-04-30T09:57:19.367Z,60.80
2019-04-30T09:59:48.470Z,60.10
2019-04-30T10:02:14.570Z,59.80
2019-04-30T10:04:42.678Z,59.80
2019-04-30T10:07:19.351Z,59.40
2019-04-30T10:09:45.299Z,57.80
2019-04-30T10:12:21.640Z,57.20
2019-04-30T10:14:50.963Z,57.90
2019-04-30T10:17:21.250Z,57.80
2019-04-30T10:19:52.780Z,58.00
2019-04-30T10:22:27.701Z,57.30
2019-04-30T10:24:54.438Z,57.70
2019-04-30T10:27:29.377Z,57.30
2019-04-30T10:29:55.255Z,57.60
2019-04-30T10:32:22.901Z,58.60
2019-04-30T10:34:50.493Z,58.00
2019-04-30T10:37:21.107Z,57.40
2019-04-30T10:39:49.218Z,57.30
2019-04-30T10:42:17.121Z,56.80
2019-04-30T10:44:46.360Z,56.10
2019-04-30T10:47:14.352Z,56.50
2019-04-30T10:49:42.334Z,56.00
2019-04-30T10:52:09.939Z,56.00
2019-04-30T10:54:38.915Z,56.20
2019-04-30T10:57:05.183Z,55.50
2019-04-30T10:59:32.776Z,55.50
2019-04-30T11:02:00.718Z,56.10
2019-04-30T11:04:28.307Z,55.70
2019-04-30T11:06:55.899Z,55.70
2019-04-30T11:09:23.553Z,56.40
2019-04-30T11:11:51.143Z,55.80
2019-04-30T11:14:18.734Z,55.00
2019-04-30T11:16:47.255Z,54.30
2019-04-30T11:19:14.858Z,54.30
2019-04-30T11:21:42.469Z,53.90
2019-04-30T11:24:10.936Z,54.10
2019-04-30T11:26:40.236Z,54.00
2019-04-30T11:29:05.996Z,54.50
2019-04-30T11:31:34.468Z,54.20
2019-04-30T11:34:01.943Z,54.10
2019-04-30T11:36:29.551Z,54.20
2019-04-30T11:38:58.708Z,53.90
2019-04-30T11:41:30.990Z,53.90
2019-04-30T11:43:55.777Z,53.60
2019-04-30T11:46:28.676Z,53.10
2019-04-30T11:48:54.870Z,53.50
2019-04-30T11:51:22.476Z,53.30
2019-04-30T11:53:50.206Z,53.60
2019-04-30T11:56:17.849Z,53.40
2019-04-30T11:58:45.550Z,53.20
2019-04-30T12:01:13.239Z,51.70
2019-04-30T12:03:40.857Z,51.40
2019-04-30T12:06:08.672Z,50.80
2019-04-30T12:08:54.570Z,50.80
2019-04-30T12:11:28.118Z,51.10
2019-04-30T12:13:55.735Z,51.30
2019-04-30T12:16:24.836Z,51.40
2019-04-30T12:18:53.305Z,50.80
2019-04-30T12:21:20.924Z,50.80
2019-04-30T12:23:48.723Z,50.60
2019-04-30T12:26:16.375Z,50.50
2019-04-30T12:28:44.320Z,51.20
2019-04-30T12:31:12.304Z,49.60
2019-04-30T12:33:39.891Z,49.40
2019-04-30T12:36:09.002Z,49.80
2019-04-30T12:38:35.155Z,50.10
2019-04-30T12:41:02.739Z,49.70
2019-04-30T12:43:30.330Z,49.70
2019-04-30T12:46:03.315Z,49.50
2019-04-30T12:48:43.515Z,49.60
2019-04-30T12:51:16.702Z,49.30
2019-04-30T12:54:03.400Z,47.90
2019-04-30T12:56:34.562Z,46.40
2019-04-30T12:59:02.994Z,46.20
2019-04-30T13:01:33.921Z,46.20
2019-04-30T13:04:01.232Z,46.60
2019-04-30T13:06:27.097Z,46.30
2019-04-30T13:08:54.775Z,46.30
2019-04-30T13:11:23.687Z,46.00
2019-04-30T13:13:51.379Z,46.00
2019-04-30T13:16:19.379Z,46.50
2019-04-30T13:18:46.999Z,46.40
2019-04-30T13:21:15.627Z,46.40
2019-04-30T13:23:43.948Z,44.50
2019-04-30T13:26:11.624Z,44.50
2019-04-30T13:28:58.284Z,42.90
2019-04-30T13:31:25.904Z,43.40
2019-04-30T13:33:54.336Z,43.00
2019-04-30T13:36:21.128Z,41.50
2019-04-30T13:38:51.718Z,41.90
2019-04-30T13:41:19.094Z,42.30
2019-04-30T13:43:52.337Z,42.80
2019-04-30T13:46:21.084Z,42.10
2019-04-30T13:48:48.674Z,42.30
2019-04-30T13:51:17.039Z,42.10
2019-04-30T13:53:44.673Z,42.10
2019-04-30T13:56:12.254Z,42.10
2019-04-30T13:58:39.970Z,42.30
2019-04-30T14:01:07.607Z,42.40
2019-04-30T14:03:49.870Z,42.50
2019-04-30T14:06:19.001Z,40.90
2019-04-30T14:08:50.787Z,39.90
2019-04-30T14:11:19.001Z,38.80
2019-04-30T14:13:46.370Z,39.50
2019-04-30T14:16:13.973Z,40.40
2019-04-30T14:18:41.555Z,40.50
2019-04-30T14:21:09.431Z,40.50
2019-04-30T14:23:36.786Z,40.60
2019-04-30T14:26:04.380Z,39.70
2019-04-30T14:28:32.676Z,39.00
2019-04-30T14:31:01.022Z,39.70
2019-04-30T14:33:29.359Z,39.70
2019-04-30T14:36:00.576Z,39.30
2019-04-30T14:38:24.644Z,39.20
2019-04-30T14:40:52.929Z,39.20
2019-04-30T14:43:20.633Z,39.50
2019-04-30T14:45:47.727Z,38.80
2019-04-30T14:48:15.793Z,38.80
2019-04-30T14:50:42.703Z,39.00
2019-04-30T14:53:12.967Z,38.30
2019-04-30T14:55:46.296Z,38.50
2019-04-30T14:58:20.264Z,37.50
2019-04-30T15:00:49.634Z,37.50
2019-04-30T15:03:15.219Z,37.40
2019-04-30T15:05:48.870Z,36.70
2019-04-30T15:08:11.211Z,36.60
2019-04-30T15:10:38.796Z,36.90
2019-04-30T15:13:06.444Z,36.80
2019-04-30T15:15:34.026Z,36.70
2019-04-30T15:18:01.611Z,36.20
2019-04-30T15:20:29.700Z,36.10
2019-04-30T15:22:59.947Z,36.20
2019-04-30T15:25:34.232Z,36.10
2019-04-30T15:27:55.523Z,36.50
2019-04-30T15:30:23.075Z,35.70
2019-04-30T15:32:50.659Z,35.50
2019-04-30T15:35:19.735Z,35.20
2019-04-30T15:37:45.877Z,34.40
2019-04-30T15:40:13.470Z,34.20
2019-04-30T15:42:41.105Z,33.80
2019-04-30T15:45:09.282Z,33.50
2019-04-30T15:47:36.279Z,33.50
2019-04-30T15:50:03.913Z,33.30
2019-04-30T15:52:31.505Z,33.60
2019-04-30T15:54:59.301Z,33.20
2019-04-30T15:57:26.727Z,33.60
2019-04-30T15:59:54.311Z,33.80
2019-04-30T16:02:24.935Z,33.80
2019-04-30T16:05:11.011Z,34.20
2019-04-30T16:07:40.589Z,33.10
2019-04-30T16:10:06.189Z,33.30
2019-04-30T16:12:33.853Z,33.60
2019-04-30T16:15:02.211Z,33.90
2019-04-30T16:17:29.814Z,33.40
2019-04-30T16:19:57.462Z,32.90
2019-04-30T16:22:25.819Z,32.40
2019-04-30T16:24:54.756Z,32.30
2019-04-30T16:27:21.050Z,32.10
2019-04-30T16:29:49.820Z,31.70
2019-04-30T16:32:16.297Z,31.50
2019-04-30T16:34:44.710Z,31.50
2019-04-30T16:37:12.293Z,31.40
2019-04-30T16:39:39.898Z,31.40
2019-04-30T16:42:09.108Z,31.80
2019-04-30T16:44:35.927Z,32.40
2019-04-30T16:47:13.590Z,32.40
2019-04-30T16:49:31.948Z,33.00
2019-04-30T16:52:01.559Z,33.00
2019-04-30T16:54:28.550Z,32.70
2019-04-30T16:57:03.365Z,32.40
2019-04-30T16:59:22.385Z,32.00
2019-04-30T17:01:57.500Z,32.60
2019-04-30T17:04:23.474Z,32.20
2019-04-30T17:06:54.188Z,32.70
2019-04-30T17:09:24.486Z,32.50
2019-04-30T17:11:59.183Z,32.80
2019-04-30T17:14:25.185Z,33.00
2019-04-30T17:16:52.776Z,33.10
2019-04-30T17:19:21.848Z,33.80
2019-04-30T17:21:49.447Z,33.80
2019-04-30T17:24:17.039Z,34.00
2019-04-30T17:26:44.671Z,33.90
2019-04-30T17:29:12.570Z,34.10
2019-04-30T17:31:40.145Z,34.20
2019-04-30T17:34:07.773Z,34.60
2019-04-30T17:36:35.360Z,34.90
2019-04-30T17:39:02.955Z,35.30
2019-04-30T17:41:30.594Z,35.70
2019-04-30T17:43:59.005Z,36.30
2019-04-30T17:46:25.779Z,36.70
2019-04-30T17:48:53.472Z,37.20
2019-04-30T17:51:22.828Z,37.90
2019-04-30T17:54:06.853Z,38.40
2019-04-30T17:56:34.446Z,38.90
2019-04-30T17:59:02.034Z,39.30
2019-04-30T18:01:29.690Z,39.90
2019-04-30T18:03:58.809Z,39.90
2019-04-30T18:06:24.854Z,40.40
2019-04-30T18:08:52.485Z,40.90
2019-04-30T18:11:20.124Z,41.30
2019-04-30T18:13:54.355Z,41.60
2019-04-30T18:16:22.421Z,42.10
2019-04-30T18:18:51.228Z,43.30
2019-04-30T18:21:20.044Z,43.00
2019-04-30T18:23:51.003Z,43.30
2019-04-30T18:26:18.601Z,43.80
2019-04-30T18:28:46.218Z,44.20
2019-04-30T18:31:13.914Z,44.60
2019-04-30T18:33:41.748Z,45.00
2019-04-30T18:36:10.060Z,45.60
2019-04-30T18:38:39.141Z,45.60
2019-04-30T18:41:05.288Z,46.00
2019-04-30T18:43:33.696Z,46.90
2019-04-30T18:46:02.092Z,47.30
2019-04-30T18:48:29.687Z,47.30
2019-04-30T18:50:57.301Z,47.60
2019-04-30T18:53:24.954Z,48.00
2019-04-30T18:55:53.332Z,48.50
2019-04-30T18:58:21.664Z,48.80
2019-04-30T19:00:49.493Z,48.80
2019-04-30T19:03:21.164Z,49.00
2019-04-30T19:05:44.646Z,49.30
2019-04-30T19:08:30.414Z,50.00
2019-04-30T19:11:06.237Z,49.70
2019-04-30T19:13:52.882Z,49.90
2019-04-30T19:16:25.341Z,49.90
2019-04-30T19:21:56.045Z,50.60
2019-04-30T19:24:24.169Z,50.80
2019-04-30T19:26:51.950Z,51.10
2019-04-30T19:29:20.967Z,51.30
2019-04-30T19:31:49.827Z,51.60
2019-04-30T19:34:17.551Z,51.80
2019-04-30T19:36:45.351Z,52.00
2019-04-30T19:39:16.341Z,52.10
2019-04-30T19:41:44.090Z,52.30
2019-04-30T19:44:12.016Z,52.50
2019-04-30T19:46:39.561Z,52.70
2019-04-30T19:49:07.186Z,52.90
2019-04-30T19:51:34.839Z,53.10
2019-04-30T19:54:02.520Z,53.90
2019-04-30T19:56:32.785Z,53.50
2019-04-30T19:59:02.843Z,53.70
2019-04-30T20:01:28.490Z,54.00
2019-04-30T20:03:53.337Z,53.70
2019-04-30T20:06:20.962Z,53.80
2019-04-30T20:08:49.011Z,54.10
2019-04-30T20:11:16.653Z,54.30
2019-04-30T20:13:44.328Z,54.60
2019-04-30T20:16:12.837Z,55.40
2019-04-30T20:18:40.448Z,55.30
2019-04-30T20:21:09.226Z,55.50
2019-04-30T20:23:35.839Z,55.60
2019-04-30T20:26:04.799Z,56.10
2019-04-30T20:28:39.215Z,56.10
2019-04-30T20:31:00.118Z,56.30
2019-04-30T20:33:28.996Z,56.70
2019-04-30T20:35:55.463Z,57.20
2019-04-30T20:38:25.618Z,57.80
2019-04-30T20:41:00.248Z,58.10
2019-04-30T20:43:20.835Z,58.50
2019-04-30T20:45:48.483Z,58.80
2019-04-30T20:48:16.087Z,59.90
2019-04-30T20:50:43.702Z,59.50
2019-04-30T20:53:11.332Z,59.70
2019-04-30T20:55:40.830Z,60.10
2019-04-30T20:58:06.532Z,60.50
2019-04-30T21:00:34.314Z,60.80
2019-04-30T21:03:01.899Z,61.20
2019-04-30T21:05:29.586Z,61.70
2019-04-30T21:07:58.657Z,63.10
2019-04-30T21:10:26.255Z,63.00
2019-04-30T21:12:54.621Z,62.80
2019-04-30T21:15:22.270Z,62.80
2019-04-30T21:17:50.509Z,63.20
2019-04-30T21:20:19.433Z,64.10
2019-04-30T21:22:45.882Z,64.00
2019-04-30T21:25:13.470Z,64.40
2019-04-30T21:27:41.339Z,64.80
2019-04-30T21:30:09.680Z,65.30
2019-04-30T21:32:59.351Z,65.70
2019-04-30T21:35:25.919Z,66.10
2019-04-30T21:37:56.171Z,66.40
2019-04-30T21:40:24.932Z,66.70
2019-04-30T21:42:52.569Z,66.80
2019-04-30T21:45:20.157Z,67.20
2019-04-30T21:47:56.112Z,67.60
2019-04-30T21:50:15.384Z,68.40
2019-04-30T21:52:42.980Z,67.90
2019-04-30T21:55:10.565Z,67.90
2019-04-30T21:57:39.221Z,68.00
2019-04-30T22:00:05.800Z,68.00
2019-04-30T22:02:33.398Z,68.00
2019-04-30T22:05:01.807Z,68.40
2019-04-30T22:07:29.514Z,68.40
2019-04-30T22:09:56.991Z,68.70
2019-04-30T22:12:24.631Z,69.00
2019-04-30T22:14:52.225Z,69.20
2019-04-30T22:17:19.810Z,69.40
2019-04-30T22:19:49.104Z,69.80
2019-04-30T22:22:15.338Z,70.20
2019-04-30T22:24:42.927Z,70.60
2019-04-30T22:27:10.572Z,70.70
2019-04-30T22:29:41.861Z,70.90
2019-04-30T22:32:05.751Z,71.10
2019-04-30T22:34:33.379Z,71.30
2019-04-30T22:37:00.979Z,71.70
2019-04-30T22:39:31.017Z,71.90
2019-04-30T22:42:19.792Z,72.00
2019-04-30T22:44:48.142Z,72.70
2019-04-30T22:47:15.734Z,72.70
2019-04-30T22:49:43.365Z,72.80
2019-04-30T22:52:10.954Z,73.00
2019-04-30T22:54:38.548Z,73.20
2019-04-30T22:57:06.665Z,73.50
2019-04-30T22:59:34.258Z,73.60
2019-04-30T23:02:10.553Z,73.70
2019-04-30T23:04:38.636Z,73.90
2019-04-30T23:07:06.219Z,74.00
2019-04-30T23:09:33.803Z,74.20
2019-04-30T23:12:01.428Z,74.40
2019-04-30T23:14:29.010Z,75.00
2019-04-30T23:16:56.950Z,74.50
2019-04-30T23:19:24.580Z,74.40
2019-04-30T23:21:52.176Z,74.60
2019-04-30T23:24:19.766Z,75.60
2019-04-30T23:26:47.385Z,75.00
2019-04-30T23:29:14.974Z,75.10
2019-04-30T23:31:42.557Z,75.30
2019-04-30T23:34:17.676Z,75.40
2019-04-30T23:36:37.766Z,75.80
2019-04-30T23:39:05.349Z,76.20
2019-04-30T23:41:33.740Z,77.40
2019-04-30T23:44:01.322Z,77.00
2019-04-30T23:46:28.913Z,77.10
2019-04-30T23:48:56.529Z,77.40
2019-04-30T23:51:24.141Z,77.60
2019-04-30T23:53:51.719Z,77.70
2019-04-30T23:56:19.388Z,77.70
2019-04-30T23:58:46.971Z,77.70
